createdAt,value
2022-12-25T05:42:11.697Z,98864.44
2022-12-25T05:44:58.557Z,98855.84
2022-12-25T05:47:45.415Z,98853.19
2022-12-25T05:50:32.264Z,98838.13
2022-12-25T05:53:24.066Z,98842.44
2022-12-25T05:56:11.384Z,98835.72
2022-12-25T05:58:58.291Z,98849.28
2022-12-25T06:01:46.443Z,98853.75
2022-12-25T06:04:34.552Z,98859.00
2022-12-25T06:07:21.491Z,98849.69
2022-12-25T06:09:48.174Z,98851.84
2022-12-25T06:12:14.776Z,98860.13
2022-12-25T06:14:42.207Z,98852.63
2022-12-25T06:17:09.293Z,98859.19
2022-12-25T06:19:35.761Z,98857.50
2022-12-25T06:22:02.248Z,98872.19
2022-12-25T06:24:28.965Z,98870.25
2022-12-25T06:26:55.551Z,98869.56
2022-12-25T06:29:22.018Z,98877.56
2022-12-25T06:31:48.581Z,98866.28
2022-12-25T06:34:16.454Z,98862.56
2022-12-25T06:36:43.355Z,98870.72
2022-12-25T06:39:09.994Z,98868.56
2022-12-25T06:41:36.511Z,98867.63
2022-12-25T06:44:03.039Z,98862.56
2022-12-25T06:46:30.489Z,98886.34
2022-12-25T06:48:58.608Z,98890.84
2022-12-25T06:51:28.196Z,98880.69
2022-12-25T06:53:55.736Z,98884.41
2022-12-25T06:56:24.632Z,98892.47
2022-12-25T06:58:54.095Z,98886.44
2022-12-25T07:01:28.941Z,98891.41
2022-12-25T07:04:01.329Z,98887.66
2022-12-25T07:06:28.477Z,98893.97
2022-12-25T07:08:55.023Z,98899.63
2022-12-25T07:11:22.046Z,98899.66
2022-12-25T07:13:49.008Z,98858.56
2022-12-25T07:16:16.005Z,98890.63
2022-12-25T07:18:42.810Z,98882.72
2022-12-25T07:21:15.110Z,98906.63
2022-12-25T07:23:42.794Z,98893.00
2022-12-25T07:26:10.501Z,98902.03
2022-12-25T07:28:37.091Z,98897.84
2022-12-25T07:31:10.775Z,98897.72
2022-12-25T07:33:37.492Z,98891.19
2022-12-25T07:36:05.396Z,98899.97
2022-12-25T07:38:32.182Z,98904.75
2022-12-25T07:40:58.674Z,98906.44
2022-12-25T07:43:25.312Z,98892.84
2022-12-25T07:45:56.928Z,98887.00
2022-12-25T07:48:23.449Z,98898.16
2022-12-25T07:51:03.091Z,98873.47
2022-12-25T07:53:29.788Z,98861.81
2022-12-25T07:56:04.117Z,98869.66
2022-12-25T07:58:31.005Z,98883.75
2022-12-25T08:01:03.879Z,98885.06
2022-12-25T08:03:31.336Z,98865.03
2022-12-25T08:06:02.251Z,98885.50
2022-12-25T08:08:29.022Z,98884.78
2022-12-25T08:10:55.603Z,98887.06
2022-12-25T08:13:22.231Z,98872.53
2022-12-25T08:15:48.966Z,98882.75
2022-12-25T08:18:15.696Z,98896.06
2022-12-25T08:20:42.291Z,98885.25
2022-12-25T08:23:08.898Z,98887.16
2022-12-25T08:25:35.382Z,98884.06
2022-12-25T08:28:01.951Z,98877.81
2022-12-25T08:30:28.627Z,98865.91
2022-12-25T08:32:55.244Z,98868.97
2022-12-25T08:35:21.832Z,98871.09
2022-12-25T08:37:48.369Z,98868.03
2022-12-25T08:40:15.001Z,98867.84
2022-12-25T08:42:41.552Z,98849.13
2022-12-25T08:45:08.693Z,98891.00
2022-12-25T08:47:35.279Z,98893.78
2022-12-25T08:50:01.770Z,98909.19
2022-12-25T08:52:28.940Z,98906.50
2022-12-25T08:54:56.222Z,98929.13
2022-12-25T08:57:22.761Z,98930.44
2022-12-25T08:59:49.228Z,98922.41
2022-12-25T09:02:17.255Z,98921.13
2022-12-25T09:04:47.020Z,98910.97
2022-12-25T09:07:13.730Z,98917.09
2022-12-25T09:09:40.302Z,98906.94
2022-12-25T09:12:06.977Z,98908.63
2022-12-25T09:14:33.459Z,98900.25
2022-12-25T09:17:00.017Z,98907.94
2022-12-25T09:19:26.482Z,98915.69
2022-12-25T09:21:53.725Z,98928.06
2022-12-25T09:24:20.874Z,98931.28
2022-12-25T09:26:47.391Z,98928.69
2022-12-25T09:29:14.723Z,98931.63
2022-12-25T09:31:41.277Z,98932.22
2022-12-25T09:34:12.594Z,98929.59
2022-12-25T09:36:43.596Z,98928.13
2022-12-25T09:39:10.093Z,98927.19
2022-12-25T09:41:51.818Z,98915.41
2022-12-25T09:44:22.552Z,98891.78
2022-12-25T09:46:54.150Z,98899.66
2022-12-25T09:49:43.010Z,98892.19
2022-12-25T09:52:20.131Z,98891.97
2022-12-25T09:55:19.640Z,98875.16
2022-12-25T09:57:51.511Z,98875.44
2022-12-25T10:00:20.721Z,98869.63
2022-12-25T10:03:06.136Z,98865.78
2022-12-25T10:05:52.662Z,98849.72
2022-12-25T10:09:00.600Z,98831.84
2022-12-25T10:11:45.693Z,98837.59
2022-12-25T10:14:30.937Z,98836.19
2022-12-25T10:17:25.320Z,98823.81
2022-12-25T10:20:06.442Z,98810.00
2022-12-25T10:22:40.694Z,98813.16
2022-12-25T10:25:16.436Z,98800.94
2022-12-25T10:27:43.577Z,98798.09
2022-12-25T10:30:22.118Z,98798.00
2022-12-25T10:32:50.058Z,98793.25
2022-12-25T10:35:22.382Z,98787.28
2022-12-25T10:37:58.762Z,98806.78
2022-12-25T10:40:37.837Z,98803.16
2022-12-25T10:43:12.398Z,98819.19
2022-12-25T10:45:47.498Z,98834.09
2022-12-25T10:48:24.121Z,98857.84
2022-12-25T10:50:51.292Z,98859.09
2022-12-25T10:53:28.648Z,98852.69
2022-12-25T10:55:59.345Z,98850.72
2022-12-25T10:58:26.645Z,98866.97
2022-12-25T11:00:59.944Z,98865.66
2022-12-25T11:03:31.417Z,98839.53
2022-12-25T11:05:58.243Z,98845.22
2022-12-25T11:08:27.557Z,98848.84
2022-12-25T11:10:58.412Z,98848.69
2022-12-25T11:13:27.848Z,98845.69
2022-12-25T11:16:06.469Z,98829.47
2022-12-25T11:18:44.436Z,98817.31
2022-12-25T11:21:22.212Z,98814.66
2022-12-25T11:23:55.485Z,98824.34
2022-12-25T11:26:22.623Z,98804.34
2022-12-25T11:28:52.094Z,98816.78
2022-12-25T11:31:40.792Z,98776.69
2022-12-25T11:34:32.801Z,98809.47
2022-12-25T11:37:02.137Z,98804.56
2022-12-25T11:39:30.170Z,98817.50
2022-12-25T11:42:04.483Z,98796.38
2022-12-25T11:44:54.626Z,98789.75
2022-12-25T11:47:40.480Z,98786.28
2022-12-25T11:50:13.825Z,98783.00
2022-12-25T11:52:44.507Z,98776.88
2022-12-25T11:55:20.306Z,98785.63
2022-12-25T11:57:53.505Z,98785.94
2022-12-25T12:00:20.819Z,98783.75
2022-12-25T12:02:55.020Z,98787.00
2022-12-25T12:05:35.469Z,98780.47
2022-12-25T12:08:05.324Z,98776.94
2022-12-25T12:10:49.979Z,98764.19
2022-12-25T12:13:36.551Z,98743.50
2022-12-25T12:16:05.813Z,98741.88
2022-12-25T12:18:33.471Z,98735.81
2022-12-25T12:21:18.276Z,98722.94
2022-12-25T12:23:56.753Z,98724.84
2022-12-25T12:26:28.815Z,98720.66
2022-12-25T12:28:58.873Z,98723.91
2022-12-25T12:31:36.198Z,98724.59
2022-12-25T12:34:03.349Z,98723.75
2022-12-25T12:36:36.034Z,98736.53
2022-12-25T12:39:05.726Z,98771.84
2022-12-25T12:41:49.149Z,98775.63
2022-12-25T12:44:17.555Z,98741.13
2022-12-25T12:47:27.781Z,98729.75
2022-12-25T12:49:59.244Z,98708.28
2022-12-25T12:52:35.305Z,98700.78
2022-12-25T12:55:08.955Z,98699.06
2022-12-25T12:57:39.924Z,98704.94
2022-12-25T13:00:15.967Z,98692.44
2022-12-25T13:03:26.476Z,98695.13
2022-12-25T13:05:58.061Z,98707.78
2022-12-25T13:08:27.520Z,98692.91
2022-12-25T13:11:15.834Z,98683.81
2022-12-25T13:13:45.188Z,98670.38
2022-12-25T13:16:36.039Z,98686.19
2022-12-25T13:19:12.100Z,98690.75
2022-12-25T13:21:38.941Z,98685.47
2022-12-25T13:24:18.102Z,98685.22
2022-12-25T13:26:44.715Z,98671.16
2022-12-25T13:29:28.889Z,98679.56
2022-12-25T13:31:56.216Z,98680.59
2022-12-25T13:34:31.762Z,98679.00
2022-12-25T13:37:08.952Z,98656.91
2022-12-25T13:39:38.917Z,98658.47
2022-12-25T13:42:08.156Z,98661.97
2022-12-25T13:45:08.063Z,98619.34
2022-12-25T13:47:40.247Z,98640.47
2022-12-25T13:50:28.593Z,98651.72
2022-12-25T13:52:57.428Z,98651.88
2022-12-25T13:55:28.943Z,98650.91
2022-12-25T13:58:02.038Z,98647.47
2022-12-25T14:00:45.540Z,98652.72
2022-12-25T14:03:21.639Z,98649.50
2022-12-25T14:06:00.145Z,98652.25
2022-12-25T14:08:30.694Z,98648.44
2022-12-25T14:10:58.891Z,98640.53
2022-12-25T14:13:28.189Z,98647.38
2022-12-25T14:15:56.839Z,98645.69
2022-12-25T14:18:24.688Z,98638.56
2022-12-25T14:20:59.501Z,98644.66
2022-12-25T14:23:26.641Z,98642.66
2022-12-25T14:25:53.392Z,98650.47
2022-12-25T14:28:24.851Z,98654.75
2022-12-25T14:30:51.720Z,98651.00
2022-12-25T14:33:23.017Z,98636.75
2022-12-25T14:35:51.333Z,98643.47
2022-12-25T14:38:30.172Z,98640.38
2022-12-25T14:41:02.241Z,98640.09
2022-12-25T14:43:30.229Z,98637.38
2022-12-25T14:46:02.718Z,98625.63
2022-12-25T14:48:31.535Z,98626.53
2022-12-25T14:51:07.143Z,98617.41
2022-12-25T14:53:41.109Z,98610.66
2022-12-25T14:56:09.393Z,98615.91
2022-12-25T14:58:43.299Z,98610.84
2022-12-25T15:01:22.079Z,98598.81
2022-12-25T15:03:49.310Z,98582.88
2022-12-25T15:06:22.431Z,98571.91
2022-12-25T15:09:01.311Z,98570.28
2022-12-25T15:11:28.809Z,98576.88
2022-12-25T15:13:55.525Z,98569.50
2022-12-25T15:16:25.741Z,98590.00
2022-12-25T15:18:53.558Z,98581.94
2022-12-25T15:21:30.625Z,98588.84
2022-12-25T15:23:58.876Z,98591.63
2022-12-25T15:26:27.261Z,98589.59
2022-12-25T15:28:53.767Z,98577.88
2022-12-25T15:31:22.315Z,98589.25
2022-12-25T15:33:49.561Z,98588.41
2022-12-25T15:36:16.052Z,98582.47
2022-12-25T15:38:42.575Z,98585.00
2022-12-25T15:41:53.454Z,98583.94
2022-12-25T15:44:20.763Z,98587.84
2022-12-25T15:46:47.680Z,98580.22
2022-12-25T15:49:15.189Z,98583.63
2022-12-25T15:51:42.826Z,98594.97
2022-12-25T15:54:10.358Z,98591.72
2022-12-25T15:56:45.044Z,98595.25
2022-12-25T15:59:13.600Z,98597.28
2022-12-25T16:01:46.081Z,98577.63
2022-12-25T16:04:12.679Z,98582.22
2022-12-25T16:06:39.149Z,98573.50
2022-12-25T16:09:05.898Z,98575.94
2022-12-25T16:11:32.389Z,98580.88
2022-12-25T16:13:58.858Z,98577.75
2022-12-25T16:16:26.080Z,98570.78
2022-12-25T16:18:52.643Z,98579.22
2022-12-25T16:21:21.003Z,98575.72
2022-12-25T16:23:48.006Z,98576.31
2022-12-25T16:26:14.558Z,98567.06
2022-12-25T16:28:41.171Z,98575.16
2022-12-25T16:31:07.815Z,98578.03
2022-12-25T16:33:34.398Z,98571.16
2022-12-25T16:36:00.863Z,98552.47
2022-12-25T16:38:27.329Z,98558.00
2022-12-25T16:40:59.999Z,98556.47
2022-12-25T16:43:27.241Z,98547.69
2022-12-25T16:45:53.830Z,98568.41
2022-12-25T16:48:20.363Z,98564.06
2022-12-25T16:50:46.863Z,98566.13
2022-12-25T16:53:13.361Z,98561.66
2022-12-25T16:55:39.904Z,98558.72
2022-12-25T16:58:06.661Z,98561.78
2022-12-25T17:00:33.324Z,98561.38
2022-12-25T17:03:01.021Z,98561.03
2022-12-25T17:05:27.726Z,98575.75
2022-12-25T17:07:54.247Z,98570.69
2022-12-25T17:10:21.367Z,98581.31
2022-12-25T17:12:48.021Z,98580.72
2022-12-25T17:15:14.599Z,98562.97
2022-12-25T17:17:41.668Z,98555.97
2022-12-25T17:20:08.776Z,98557.66
2022-12-25T17:22:35.266Z,98545.13
2022-12-25T17:25:02.014Z,98528.59
2022-12-25T17:27:28.517Z,98532.81
2022-12-25T17:29:55.022Z,98536.56
2022-12-25T17:32:21.593Z,98532.34
2022-12-25T17:34:48.108Z,98536.34
2022-12-25T17:37:14.566Z,98533.69
2022-12-25T17:39:41.069Z,98528.75
2022-12-25T17:42:07.672Z,98545.03
2022-12-25T17:44:34.184Z,98535.00
2022-12-25T17:47:00.849Z,98532.97
2022-12-25T17:49:27.470Z,98541.66
2022-12-25T17:51:54.144Z,98535.88
2022-12-25T17:54:20.674Z,98546.00
2022-12-25T17:56:47.931Z,98535.88
2022-12-25T17:59:18.493Z,98547.53
2022-12-25T18:01:46.781Z,98544.91
2022-12-25T18:04:32.262Z,98534.56
2022-12-25T18:07:17.593Z,98532.25
2022-12-25T18:10:04.766Z,98521.84
2022-12-25T18:12:51.560Z,98526.09
2022-12-25T18:15:41.733Z,98478.03
2022-12-25T18:18:29.026Z,98495.47
2022-12-25T18:21:16.008Z,98507.91
2022-12-25T18:24:04.995Z,98515.13
2022-12-25T18:26:51.848Z,98537.19
2022-12-25T18:29:38.670Z,98529.59
2022-12-25T18:32:28.113Z,98534.66
2022-12-25T18:35:15.382Z,98530.44
2022-12-25T18:38:02.211Z,98533.22
2022-12-25T18:40:49.063Z,98523.69
2022-12-25T18:43:53.051Z,98529.84
2022-12-25T18:46:41.890Z,98521.88
2022-12-25T18:49:28.712Z,98523.31
2022-12-25T18:52:49.352Z,98528.41
2022-12-25T18:55:22.302Z,98532.88
2022-12-25T18:58:09.111Z,98540.94
2022-12-25T19:00:56.047Z,98543.00
2022-12-25T19:03:43.207Z,98528.16
2022-12-25T19:06:32.671Z,98528.88
2022-12-25T19:09:20.194Z,98513.94
2022-12-25T19:12:07.065Z,98518.28
2022-12-25T19:14:53.977Z,98514.03
2022-12-25T19:17:40.867Z,98491.75
2022-12-25T19:20:27.706Z,98494.28
2022-12-25T19:23:14.568Z,98489.59
2022-12-25T19:26:04.053Z,98489.34
2022-12-25T19:28:50.832Z,98488.38
2022-12-25T19:31:38.181Z,98485.84
2022-12-25T19:34:25.255Z,98475.72
2022-12-25T19:37:12.112Z,98478.88
2022-12-25T19:39:59.016Z,98475.00
2022-12-25T19:42:45.841Z,98471.03
2022-12-25T19:45:33.207Z,98475.50
2022-12-25T19:48:20.085Z,98482.38
2022-12-25T19:51:19.026Z,98491.13
2022-12-25T19:54:06.678Z,98490.78
2022-12-25T19:56:53.545Z,98504.78
2022-12-25T19:59:40.367Z,98516.34
2022-12-25T20:02:28.388Z,98514.66
2022-12-25T20:05:15.486Z,98514.56
2022-12-25T20:08:02.626Z,98515.41
2022-12-25T20:10:49.725Z,98508.28
2022-12-25T20:13:36.711Z,98532.50
2022-12-25T20:16:24.859Z,98533.00
2022-12-25T20:19:13.369Z,98539.25
2022-12-25T20:22:00.235Z,98532.63
2022-12-25T20:24:48.956Z,98536.94
2022-12-25T20:27:35.767Z,98545.88
2022-12-25T20:30:22.918Z,98545.97
2022-12-25T20:33:10.104Z,98555.38
2022-12-25T20:35:59.988Z,98549.97
2022-12-25T20:38:47.229Z,98542.34
2022-12-25T20:41:34.079Z,98553.81
2022-12-25T20:44:20.905Z,98549.34
2022-12-25T20:47:07.776Z,98547.03
2022-12-25T20:49:55.374Z,98543.16
2022-12-25T20:52:42.195Z,98554.00
